createdAt,value
2023-02-14T00:01:57.120Z,57.95
2023-02-14T00:04:01.315Z,58.38
2023-02-14T00:06:11.506Z,58.72
2023-02-14T00:08:16.280Z,58.71
2023-02-14T00:10:19.427Z,58.04
2023-02-14T00:12:22.018Z,58.54
2023-02-14T00:14:42.483Z,58.21
2023-02-14T00:16:47.081Z,58.51
2023-02-14T00:19:04.098Z,58.32
2023-02-14T00:21:06.146Z,58.38
2023-02-14T00:23:08.159Z,58.46
2023-02-14T00:25:10.431Z,58.39
2023-02-14T00:27:12.509Z,58.55
2023-02-14T00:29:17.087Z,58.56
2023-02-14T00:31:19.480Z,58.81
2023-02-14T00:33:23.585Z,58.64
2023-02-14T00:35:25.701Z,58.39
2023-02-14T00:37:29.633Z,58.37
2023-02-14T00:39:32.158Z,58.47
2023-02-14T00:41:34.428Z,59.06
2023-02-14T00:43:36.323Z,59.08
2023-02-14T00:45:38.395Z,58.97
2023-02-14T00:47:40.296Z,58.27
2023-02-14T00:49:42.709Z,58.64
2023-02-14T00:51:44.747Z,58.59
2023-02-14T00:53:49.204Z,58.63
2023-02-14T00:55:51.727Z,58.17
2023-02-14T00:57:57.083Z,58.41
2023-02-14T00:59:59.098Z,58.31
2023-02-14T01:02:02.626Z,58.17
2023-02-14T01:04:05.171Z,58.43
2023-02-14T01:06:08.212Z,58.36
2023-02-14T01:08:10.544Z,58.60
2023-02-14T01:10:13.578Z,58.05
2023-02-14T01:12:17.979Z,58.25
2023-02-14T01:14:19.960Z,58.10
2023-02-14T01:16:24.151Z,57.83
2023-02-14T01:18:26.150Z,58.38
2023-02-14T01:20:28.512Z,57.81
2023-02-14T01:22:34.762Z,59.01
2023-02-14T01:24:36.774Z,58.32
2023-02-14T01:26:39.538Z,57.99
2023-02-14T01:28:42.274Z,57.87
2023-02-14T01:30:44.377Z,58.25
2023-02-14T01:32:46.665Z,58.60
2023-02-14T01:34:48.879Z,59.92
2023-02-14T01:36:51.181Z,58.94
2023-02-14T01:38:57.044Z,58.93
2023-02-14T01:40:59.562Z,59.16
2023-02-14T01:43:05.891Z,59.18
2023-02-14T01:45:21.028Z,59.58
2023-02-14T01:47:23.792Z,58.90
2023-02-14T01:49:37.924Z,58.72
2023-02-14T01:51:46.761Z,58.70
2023-02-14T01:53:50.318Z,58.60
2023-02-14T01:56:06.164Z,58.83
2023-02-14T01:58:25.458Z,58.37
2023-02-14T02:00:46.860Z,58.36
2023-02-14T02:02:49.469Z,58.66
2023-02-14T02:04:56.945Z,58.79
2023-02-14T02:07:05.105Z,59.26
2023-02-14T02:09:22.482Z,59.00
2023-02-14T02:11:24.678Z,58.65
2023-02-14T02:13:26.671Z,58.68
2023-02-14T02:15:35.410Z,58.31
2023-02-14T02:18:20.308Z,58.89
2023-02-14T02:20:29.164Z,58.82
2023-02-14T02:22:38.446Z,58.63
2023-02-14T02:24:43.336Z,58.64
2023-02-14T02:26:45.309Z,58.49
2023-02-14T02:29:12.287Z,58.46
2023-02-14T02:32:08.319Z,58.35
2023-02-14T02:34:18.974Z,58.47
2023-02-14T02:36:41.036Z,58.58
2023-02-14T02:38:58.381Z,58.52
2023-02-14T02:41:32.698Z,59.12
2023-02-14T02:44:03.832Z,59.55
2023-02-14T02:46:35.460Z,58.77
2023-02-14T02:48:45.504Z,58.55
2023-02-14T02:51:22.751Z,58.67
2023-02-14T02:53:39.960Z,58.27
2023-02-14T02:56:46.148Z,58.64
2023-02-14T02:59:05.017Z,58.32
2023-02-14T03:01:14.841Z,58.91
2023-02-14T03:03:35.804Z,58.41
2023-02-14T03:05:38.276Z,58.23
2023-02-14T03:07:40.581Z,58.84
2023-02-14T03:09:43.390Z,58.68
2023-02-14T03:12:31.410Z,59.26
2023-02-14T03:14:57.354Z,58.82
2023-02-14T03:17:50.864Z,58.76
2023-02-14T03:20:17.828Z,58.53
2023-02-14T03:22:43.650Z,58.67
2023-02-14T03:24:53.953Z,58.09
2023-02-14T03:27:05.118Z,58.48
2023-02-14T03:29:20.219Z,58.56
2023-02-14T03:31:38.523Z,59.28
2023-02-14T03:33:53.186Z,58.99
2023-02-14T03:36:10.925Z,59.32
2023-02-14T03:38:33.428Z,59.18
2023-02-14T03:40:49.578Z,59.21
2023-02-14T03:42:57.586Z,58.75
2023-02-14T03:45:02.843Z,58.88
2023-02-14T03:47:13.027Z,58.77
2023-02-14T03:49:24.036Z,59.56
2023-02-14T03:51:28.513Z,59.14
2023-02-14T03:53:35.236Z,58.93
2023-02-14T03:55:44.874Z,59.44
2023-02-14T03:57:59.891Z,59.22
2023-02-14T04:00:03.322Z,59.19
2023-02-14T04:02:16.465Z,59.23
2023-02-14T04:04:21.775Z,59.21
2023-02-14T04:06:24.062Z,58.59
2023-02-14T04:08:28.588Z,58.81
2023-02-14T04:10:30.999Z,58.83
2023-02-14T04:12:38.037Z,59.11
2023-02-14T04:14:40.827Z,58.60
2023-02-14T04:17:01.813Z,58.64
2023-02-14T04:19:22.412Z,58.87
2023-02-14T04:21:24.806Z,58.59
2023-02-14T04:23:27.293Z,59.28
2023-02-14T04:25:29.757Z,58.68
2023-02-14T04:27:31.824Z,58.90
2023-02-14T04:29:34.142Z,58.85
2023-02-14T04:31:36.293Z,58.94
2023-02-14T04:33:39.416Z,58.93
2023-02-14T04:35:41.704Z,58.91
2023-02-14T04:37:44.293Z,58.91
2023-02-14T04:39:46.380Z,58.83
2023-02-14T04:41:48.471Z,58.56
2023-02-14T04:43:50.808Z,58.52
2023-02-14T04:45:53.026Z,58.94
2023-02-14T04:47:55.033Z,58.86
2023-02-14T04:49:57.033Z,58.75
2023-02-14T04:51:59.603Z,58.51
2023-02-14T04:54:01.955Z,58.53
2023-02-14T04:56:04.439Z,58.70
2023-02-14T04:58:06.454Z,58.73
2023-02-14T05:00:09.220Z,58.69
2023-02-14T05:02:11.315Z,58.97
2023-02-14T05:04:13.802Z,59.27
2023-02-14T05:06:16.082Z,58.82
2023-02-14T05:08:18.342Z,59.14
2023-02-14T05:10:20.445Z,58.78
2023-02-14T05:12:22.630Z,59.07
2023-02-14T05:14:24.805Z,59.26
2023-02-14T05:16:27.150Z,59.15
2023-02-14T05:18:29.672Z,59.36
2023-02-14T05:20:32.287Z,59.81
2023-02-14T05:22:34.483Z,59.23
2023-02-14T05:24:36.574Z,58.99
2023-02-14T05:26:38.789Z,59.51
2023-02-14T05:28:41.344Z,59.36
2023-02-14T05:30:43.865Z,59.97
2023-02-14T05:32:45.975Z,59.43
2023-02-14T05:34:50.426Z,59.31
2023-02-14T05:36:55.172Z,59.21
2023-02-14T05:38:57.346Z,59.55
2023-02-14T05:40:59.944Z,59.16
2023-02-14T05:43:04.785Z,59.09
2023-02-14T05:45:07.247Z,59.22
2023-02-14T05:47:11.005Z,59.72
2023-02-14T05:49:14.655Z,59.28
2023-02-14T05:51:16.887Z,59.67
2023-02-14T05:53:19.002Z,59.55
2023-02-14T05:55:21.383Z,59.76
2023-02-14T05:57:23.844Z,59.62
2023-02-14T05:59:25.990Z,59.89
2023-02-14T06:01:28.108Z,59.77
2023-02-14T06:03:30.328Z,59.42
2023-02-14T06:05:32.492Z,59.31
2023-02-14T06:07:34.986Z,59.50
2023-02-14T06:09:37.425Z,59.20
2023-02-14T06:11:39.931Z,59.57
2023-02-14T06:13:42.008Z,59.42
2023-02-14T06:15:44.476Z,59.21
2023-02-14T06:17:54.568Z,59.47
2023-02-14T06:19:56.709Z,59.51
2023-02-14T06:21:58.612Z,59.35
2023-02-14T06:24:00.924Z,59.12
2023-02-14T06:26:03.989Z,59.51
2023-02-14T06:28:06.747Z,59.58
2023-02-14T06:30:10.846Z,59.29
2023-02-14T06:32:14.009Z,59.65
2023-02-14T06:34:16.385Z,59.40
2023-02-14T06:36:19.343Z,59.31
2023-02-14T06:38:21.627Z,59.53
2023-02-14T06:40:24.376Z,59.13
2023-02-14T06:42:26.644Z,59.66
2023-02-14T06:44:28.893Z,59.39
2023-02-14T06:46:31.318Z,59.83
2023-02-14T06:48:33.603Z,59.65
2023-02-14T06:50:35.992Z,60.00
2023-02-14T06:52:37.989Z,59.85
2023-02-14T06:54:40.288Z,59.63
2023-02-14T06:56:42.742Z,59.37
2023-02-14T06:58:45.197Z,59.31
2023-02-14T07:00:47.871Z,59.61
2023-02-14T07:02:49.960Z,59.46
2023-02-14T07:04:52.066Z,59.87
2023-02-14T07:06:54.623Z,59.34
2023-02-14T07:08:56.779Z,59.60
2023-02-14T07:10:59.269Z,59.68
2023-02-14T07:13:01.692Z,59.57
2023-02-14T07:15:04.292Z,59.47
2023-02-14T07:17:06.380Z,59.58
2023-02-14T07:19:08.464Z,59.39
2023-02-14T07:21:10.562Z,59.49
2023-02-14T07:23:13.080Z,60.19
2023-02-14T07:25:15.497Z,60.09
2023-02-14T07:27:17.649Z,59.97
2023-02-14T07:29:19.845Z,60.05
2023-02-14T07:31:23.695Z,60.29
2023-02-14T07:33:25.950Z,59.72
2023-02-14T07:35:30.423Z,59.33
2023-02-14T07:37:33.869Z,60.17
2023-02-14T07:39:35.884Z,59.84
2023-02-14T07:41:38.101Z,60.30
2023-02-14T07:43:45.055Z,60.33
2023-02-14T07:45:47.259Z,59.93
2023-02-14T07:47:51.551Z,60.35
2023-02-14T07:49:53.799Z,60.79
2023-02-14T07:51:55.978Z,61.05
2023-02-14T07:54:00.646Z,60.48
2023-02-14T07:56:02.816Z,60.27
2023-02-14T07:58:05.222Z,60.35
2023-02-14T08:00:08.554Z,60.64
2023-02-14T08:02:16.151Z,60.71
2023-02-14T08:04:18.494Z,60.89
2023-02-14T08:06:20.788Z,60.80
2023-02-14T08:08:29.007Z,60.66
2023-02-14T08:10:31.407Z,60.42
2023-02-14T08:12:51.984Z,60.21
2023-02-14T08:14:54.700Z,60.43
2023-02-14T08:16:57.096Z,60.33
2023-02-14T08:18:59.251Z,60.09
2023-02-14T08:21:01.808Z,59.99
2023-02-14T08:23:04.399Z,59.96
2023-02-14T08:25:07.151Z,60.40
2023-02-14T08:27:09.161Z,60.42
2023-02-14T08:29:11.258Z,59.94
2023-02-14T08:31:14.834Z,60.44
2023-02-14T08:33:18.602Z,60.69
2023-02-14T08:35:20.681Z,60.74
2023-02-14T08:37:23.068Z,60.97
2023-02-14T08:39:25.597Z,60.90
2023-02-14T08:41:27.757Z,60.77
2023-02-14T08:43:29.873Z,60.39
2023-02-14T08:45:32.353Z,60.38
2023-02-14T08:47:36.128Z,60.51
2023-02-14T08:49:38.417Z,59.95
2023-02-14T08:51:40.549Z,59.76
2023-02-14T08:53:43.712Z,59.58
2023-02-14T08:55:46.219Z,59.64
2023-02-14T08:57:49.634Z,60.35
2023-02-14T08:59:51.581Z,60.71
2023-02-14T09:01:53.942Z,61.04
2023-02-14T09:03:57.123Z,61.00
2023-02-14T09:06:07.061Z,61.16
2023-02-14T09:08:09.396Z,60.58
2023-02-14T09:10:11.984Z,60.34
2023-02-14T09:12:14.122Z,60.21
2023-02-14T09:14:16.405Z,60.38
2023-02-14T09:16:22.371Z,60.93
2023-02-14T09:18:24.779Z,60.18
2023-02-14T09:20:26.964Z,60.00
2023-02-14T09:22:29.388Z,60.00
2023-02-14T09:24:33.262Z,60.73
2023-02-14T09:26:37.184Z,60.63
2023-02-14T09:28:40.179Z,61.07
2023-02-14T09:30:42.682Z,61.08
2023-02-14T09:32:45.020Z,60.56
2023-02-14T09:34:47.189Z,60.60
2023-02-14T09:37:07.820Z,60.90
2023-02-14T09:39:09.883Z,60.81
2023-02-14T09:41:52.519Z,60.89
2023-02-14T09:44:15.989Z,62.06
2023-02-14T09:46:19.769Z,60.97
2023-02-14T09:48:31.748Z,61.04
2023-02-14T09:50:49.150Z,61.52
2023-02-14T09:52:56.053Z,61.52
2023-02-14T09:55:01.586Z,61.42
2023-02-14T09:57:46.764Z,61.66
2023-02-14T09:59:55.229Z,61.17
2023-02-14T10:02:06.981Z,60.74
2023-02-14T10:04:42.924Z,61.18
2023-02-14T10:07:17.662Z,60.96
2023-02-14T10:09:34.562Z,60.53
2023-02-14T10:11:37.535Z,60.51
2023-02-14T10:14:04.318Z,60.66
2023-02-14T10:16:32.759Z,61.20
2023-02-14T10:18:43.217Z,61.07
2023-02-14T10:20:49.229Z,60.88
2023-02-14T10:23:03.078Z,60.55
2023-02-14T10:25:20.354Z,61.02
2023-02-14T10:27:40.617Z,60.60
2023-02-14T10:29:42.898Z,60.44
2023-02-14T10:31:57.783Z,60.28
2023-02-14T10:34:08.377Z,59.08
2023-02-14T10:36:23.862Z,58.45
2023-02-14T10:38:41.087Z,58.28
2023-02-14T10:40:46.133Z,57.79
2023-02-14T10:43:16.322Z,57.95
2023-02-14T10:45:24.164Z,57.07
2023-02-14T10:47:47.212Z,56.78
2023-02-14T10:50:19.593Z,56.60
2023-02-14T10:52:39.161Z,56.22
2023-02-14T10:54:51.002Z,57.03
2023-02-14T10:57:04.381Z,57.17
2023-02-14T10:59:19.325Z,56.73
2023-02-14T11:01:22.388Z,57.26
2023-02-14T11:03:24.782Z,57.14
2023-02-14T11:05:46.941Z,56.89
2023-02-14T11:07:49.687Z,57.29
2023-02-14T11:09:51.899Z,57.36
2023-02-14T11:11:57.383Z,57.54
2023-02-14T11:14:02.156Z,57.40
2023-02-14T11:16:10.906Z,57.53
2023-02-14T11:18:31.990Z,56.91
2023-02-14T11:20:34.148Z,56.91
2023-02-14T11:22:36.467Z,57.06
2023-02-14T11:24:42.030Z,56.82
2023-02-14T11:26:50.266Z,56.06
2023-02-14T11:28:57.546Z,55.59
2023-02-14T11:31:00.471Z,56.01
2023-02-14T11:33:04.939Z,55.91
2023-02-14T11:35:34.656Z,55.57
2023-02-14T11:37:46.351Z,54.92
2023-02-14T11:39:50.149Z,55.07
2023-02-14T11:41:56.534Z,55.20
2023-02-14T11:44:15.591Z,54.47
2023-02-14T11:46:21.250Z,54.21
2023-02-14T11:48:37.858Z,54.59
2023-02-14T11:50:42.772Z,54.87
2023-02-14T11:52:57.238Z,54.37
2023-02-14T11:55:00.758Z,55.07
2023-02-14T11:57:28.560Z,54.43
2023-02-14T11:59:56.418Z,54.18
2023-02-14T12:02:03.711Z,54.82
2023-02-14T12:04:15.574Z,54.89
2023-02-14T12:06:36.974Z,54.14
2023-02-14T12:08:42.075Z,54.07
2023-02-14T12:10:44.320Z,54.52
2023-02-14T12:12:50.865Z,53.80
2023-02-14T12:15:10.603Z,54.84
2023-02-14T12:17:31.792Z,53.99
2023-02-14T12:20:01.356Z,53.81
2023-02-14T12:22:06.656Z,54.26
2023-02-14T12:24:16.989Z,54.35
2023-02-14T12:26:32.423Z,54.02
2023-02-14T12:28:44.229Z,54.14
2023-02-14T12:30:47.113Z,54.56
2023-02-14T12:32:52.493Z,53.99
2023-02-14T12:35:04.483Z,53.71
2023-02-14T12:37:30.806Z,53.92
2023-02-14T12:39:41.667Z,54.40
2023-02-14T12:42:00.250Z,54.39
2023-02-14T12:44:16.534Z,54.04
2023-02-14T12:46:55.993Z,53.69
2023-02-14T12:49:32.585Z,54.23
2023-02-14T12:52:03.747Z,53.65
2023-02-14T12:54:55.768Z,53.43
2023-02-14T12:57:13.634Z,54.12
2023-02-14T12:59:44.695Z,53.87
2023-02-14T13:02:05.318Z,53.27
2023-02-14T13:04:35.163Z,53.96
2023-02-14T13:06:41.271Z,53.73
2023-02-14T13:09:10.847Z,53.63
2023-02-14T13:11:13.168Z,54.39
2023-02-14T13:13:33.351Z,54.23
2023-02-14T13:16:02.041Z,53.75
2023-02-14T13:18:15.895Z,53.70
2023-02-14T13:20:56.530Z,53.75
2023-02-14T13:23:04.409Z,53.88
2023-02-14T13:25:31.862Z,53.04
2023-02-14T13:27:38.477Z,53.47
2023-02-14T13:29:48.673Z,53.87
2023-02-14T13:31:54.305Z,53.67
2023-02-14T13:34:07.874Z,54.35
2023-02-14T13:36:13.313Z,54.35
2023-02-14T13:38:18.518Z,53.99
2023-02-14T13:40:28.184Z,53.67
2023-02-14T13:42:51.896Z,53.80
2023-02-14T13:44:54.094Z,54.15
2023-02-14T13:46:56.279Z,53.85
2023-02-14T13:49:02.933Z,54.01
2023-02-14T13:51:10.160Z,54.50
2023-02-14T13:53:13.941Z,54.42
2023-02-14T13:55:26.348Z,54.21
2023-02-14T13:57:36.656Z,54.40
2023-02-14T13:59:38.824Z,53.11
2023-02-14T14:01:50.290Z,53.97
2023-02-14T14:03:55.430Z,53.45
2023-02-14T14:06:03.043Z,53.93
2023-02-14T14:08:35.304Z,53.50
2023-02-14T14:10:47.463Z,54.20
2023-02-14T14:12:52.259Z,53.98
2023-02-14T14:15:06.588Z,53.60
2023-02-14T14:17:20.804Z,53.11
2023-02-14T14:19:25.929Z,53.33
2023-02-14T14:21:38.021Z,53.34
2023-02-14T14:23:42.084Z,53.65
2023-02-14T14:25:45.097Z,53.64
2023-02-14T14:27:48.051Z,53.51
2023-02-14T14:30:25.936Z,53.67
2023-02-14T14:32:32.820Z,54.10
2023-02-14T14:34:34.879Z,54.09
2023-02-14T14:36:36.885Z,53.84
2023-02-14T14:38:51.152Z,54.04
2023-02-14T14:40:56.219Z,53.75
2023-02-14T14:43:24.469Z,53.86
2023-02-14T14:45:31.769Z,53.89
2023-02-14T14:47:43.500Z,53.31
2023-02-14T14:49:46.060Z,53.76
2023-02-14T14:51:49.373Z,54.10
2023-02-14T14:53:56.170Z,53.71
2023-02-14T14:55:59.048Z,53.36
2023-02-14T14:58:09.179Z,53.52
2023-02-14T15:00:22.771Z,53.17
2023-02-14T15:02:30.114Z,52.93
2023-02-14T15:04:36.128Z,53.13
2023-02-14T15:06:39.108Z,53.39
2023-02-14T15:08:41.399Z,53.35
2023-02-14T15:10:48.399Z,53.73
2023-02-14T15:13:12.008Z,53.62
2023-02-14T15:15:16.989Z,53.74
2023-02-14T15:17:31.939Z,53.73
2023-02-14T15:19:41.079Z,54.03
2023-02-14T15:21:46.223Z,53.98
2023-02-14T15:23:48.963Z,54.31
2023-02-14T15:25:52.513Z,54.06
2023-02-14T15:27:54.479Z,54.30
2023-02-14T15:30:09.060Z,54.27
2023-02-14T15:32:12.170Z,54.03
2023-02-14T15:34:14.857Z,54.37
2023-02-14T15:36:22.839Z,54.22
2023-02-14T15:38:26.629Z,54.37
2023-02-14T15:40:31.982Z,54.15
2023-02-14T15:42:40.663Z,54.13
2023-02-14T15:44:42.707Z,54.34
2023-02-14T15:46:45.314Z,54.19
2023-02-14T15:48:48.252Z,54.41
2023-02-14T15:50:56.229Z,54.81
2023-02-14T15:53:24.023Z,54.77
2023-02-14T15:55:33.435Z,54.86
2023-02-14T15:57:36.864Z,54.89
2023-02-14T15:59:42.472Z,54.73
2023-02-14T16:02:00.838Z,55.02
2023-02-14T16:04:05.486Z,54.95
2023-02-14T16:06:29.533Z,54.79
2023-02-14T16:08:37.629Z,54.78
2023-02-14T16:10:42.655Z,55.06
2023-02-14T16:12:57.638Z,55.11
2023-02-14T16:15:09.946Z,55.27
2023-02-14T16:17:14.298Z,55.06
2023-02-14T16:19:33.018Z,55.34
2023-02-14T16:21:35.277Z,55.08
2023-02-14T16:23:37.783Z,55.38
2023-02-14T16:25:41.445Z,55.17
2023-02-14T16:27:43.427Z,55.08
2023-02-14T16:29:45.489Z,55.15
2023-02-14T16:34:20.313Z,55.38
2023-02-14T16:36:28.249Z,55.39
2023-02-14T16:38:32.522Z,55.10
2023-02-14T16:40:35.451Z,55.60
2023-02-14T16:42:39.820Z,55.69
2023-02-14T16:44:41.982Z,54.98
2023-02-14T16:46:45.640Z,55.29
2023-02-14T16:48:52.477Z,55.21
2023-02-14T16:50:57.459Z,55.24
2023-02-14T16:52:59.604Z,55.56
2023-02-14T16:55:02.850Z,55.69
2023-02-14T16:57:05.554Z,55.31
2023-02-14T16:59:09.250Z,55.34
2023-02-14T17:01:11.349Z,55.75
2023-02-14T17:03:13.329Z,55.89
2023-02-14T17:05:15.401Z,55.90
2023-02-14T17:07:17.566Z,55.66
2023-02-14T17:09:27.367Z,55.56
2023-02-14T17:11:31.786Z,55.66
2023-02-14T17:13:36.992Z,55.60
2023-02-14T17:15:40.999Z,55.85
2023-02-14T17:17:44.855Z,55.66
2023-02-14T17:19:47.133Z,55.60
2023-02-14T17:21:49.489Z,56.05
2023-02-14T17:23:51.558Z,55.81
2023-02-14T17:25:53.723Z,56.13
2023-02-14T17:27:56.582Z,55.88
2023-02-14T17:29:58.994Z,55.93
2023-02-14T17:32:01.187Z,56.07
2023-02-14T17:34:04.222Z,56.41
2023-02-14T17:36:12.828Z,56.67
2023-02-14T17:38:15.072Z,56.53
2023-02-14T17:40:17.174Z,56.42
2023-02-14T17:42:19.506Z,56.41
2023-02-14T17:44:21.736Z,56.33
2023-02-14T17:46:23.876Z,56.46
2023-02-14T17:48:26.099Z,56.45
2023-02-14T17:50:28.340Z,56.38
2023-02-14T17:52:30.859Z,56.85
2023-02-14T17:54:37.665Z,56.84
2023-02-14T17:56:42.927Z,56.37
2023-02-14T17:58:47.852Z,56.52
2023-02-14T18:00:50.182Z,56.24
2023-02-14T18:02:52.402Z,56.06
2023-02-14T18:04:55.382Z,56.02
2023-02-14T18:06:57.569Z,55.88
2023-02-14T18:09:00.217Z,56.10
2023-02-14T18:11:10.681Z,56.24
2023-02-14T18:13:13.151Z,56.12
2023-02-14T18:15:15.698Z,56.46
2023-02-14T18:17:17.695Z,56.23
2023-02-14T18:19:20.346Z,56.15
2023-02-14T18:21:24.689Z,56.52
2023-02-14T18:23:27.210Z,56.36
2023-02-14T18:25:29.485Z,56.67
2023-02-14T18:27:31.461Z,56.66
2023-02-14T18:29:34.277Z,56.55
2023-02-14T18:31:38.885Z,56.68
2023-02-14T18:33:41.580Z,56.73
2023-02-14T18:35:45.347Z,57.05
2023-02-14T18:37:47.241Z,56.95
2023-02-14T18:39:49.683Z,57.17
2023-02-14T18:41:51.658Z,57.29
2023-02-14T18:43:53.947Z,57.21
2023-02-14T18:46:01.987Z,57.04
2023-02-14T18:48:05.555Z,57.19
2023-02-14T18:50:33.768Z,57.34
2023-02-14T18:52:37.293Z,57.05
2023-02-14T18:54:39.969Z,57.19
2023-02-14T18:56:42.349Z,57.18
2023-02-14T18:58:48.136Z,56.59
2023-02-14T19:00:55.087Z,57.08
2023-02-14T19:02:57.470Z,56.68
2023-02-14T19:05:00.847Z,56.87
2023-02-14T19:07:06.169Z,56.66
2023-02-14T19:09:14.572Z,56.74
2023-02-14T19:11:19.917Z,56.55
2023-02-14T19:13:22.063Z,56.74
2023-02-14T19:15:24.266Z,56.61
2023-02-14T19:17:26.409Z,56.99
2023-02-14T19:19:28.593Z,56.59
2023-02-14T19:21:36.913Z,57.25
2023-02-14T19:23:39.524Z,56.91
2023-02-14T19:25:41.748Z,56.56
2023-02-14T19:27:43.995Z,56.73
2023-02-14T19:29:46.286Z,56.97
2023-02-14T19:31:52.605Z,56.89
2023-02-14T19:33:55.617Z,56.64
2023-02-14T19:36:05.706Z,57.17
2023-02-14T19:38:07.892Z,56.77
2023-02-14T19:40:10.959Z,57.05
2023-02-14T19:42:13.284Z,57.03
2023-02-14T19:44:17.267Z,56.62
2023-02-14T19:46:20.545Z,56.78
2023-02-14T19:48:23.096Z,56.93
2023-02-14T19:50:25.624Z,56.89
2023-02-14T19:52:28.396Z,56.89
2023-02-14T19:54:31.056Z,56.69
2023-02-14T19:56:38.399Z,57.09
2023-02-14T19:58:41.874Z,56.92
2023-02-14T20:00:44.404Z,56.75
2023-02-14T20:02:48.248Z,56.73
2023-02-14T20:04:50.675Z,56.53
2023-02-14T20:06:53.544Z,57.05
2023-02-14T20:08:56.194Z,57.01
2023-02-14T20:10:58.478Z,57.07
2023-02-14T20:13:01.921Z,57.07
2023-02-14T20:15:05.753Z,56.89
2023-02-14T20:17:08.082Z,56.69
2023-02-14T20:19:13.320Z,56.86
2023-02-14T20:21:24.243Z,57.00
2023-02-14T20:23:26.848Z,56.87
2023-02-14T20:25:28.965Z,57.28
2023-02-14T20:27:31.287Z,56.97
2023-02-14T20:29:33.307Z,56.72
2023-02-14T20:31:37.477Z,57.10
2023-02-14T20:33:40.736Z,57.16
2023-02-14T20:35:42.945Z,56.90
2023-02-14T20:37:46.295Z,57.05
2023-02-14T20:39:48.417Z,56.69
2023-02-14T20:41:50.809Z,57.25
2023-02-14T20:43:52.813Z,56.66
2023-02-14T20:45:59.188Z,57.14
2023-02-14T20:48:04.345Z,57.06
2023-02-14T20:50:07.242Z,57.18
2023-02-14T20:52:09.463Z,57.13
2023-02-14T20:54:11.700Z,57.47
2023-02-14T20:56:15.406Z,57.71
2023-02-14T20:58:18.165Z,57.40
2023-02-14T21:00:20.997Z,57.31
2023-02-14T21:02:23.113Z,57.58
2023-02-14T21:04:25.767Z,57.26
2023-02-14T21:06:32.803Z,57.39
2023-02-14T21:08:36.428Z,57.59
2023-02-14T21:10:38.416Z,57.57
2023-02-14T21:12:41.106Z,57.62
2023-02-14T21:14:45.887Z,57.72
2023-02-14T21:16:48.246Z,57.68
2023-02-14T21:18:59.307Z,57.55
2023-02-14T21:21:13.549Z,58.04
2023-02-14T21:23:15.949Z,58.25
2023-02-14T21:25:18.143Z,57.66
2023-02-14T21:27:20.570Z,57.98
2023-02-14T21:29:22.782Z,57.68
2023-02-14T21:31:28.218Z,58.29
2023-02-14T21:33:32.487Z,58.46
2023-02-14T21:35:37.239Z,58.35
2023-02-14T21:37:39.146Z,58.16
2023-02-14T21:39:41.850Z,57.95
2023-02-14T21:41:43.944Z,58.07
2023-02-14T21:43:48.423Z,58.07
2023-02-14T21:45:53.782Z,58.42
2023-02-14T21:48:14.408Z,57.93
2023-02-14T21:50:31.343Z,57.76
2023-02-14T21:52:34.040Z,57.89
2023-02-14T21:54:36.017Z,58.15
2023-02-14T21:56:39.258Z,58.09
2023-02-14T21:58:41.700Z,58.29
2023-02-14T22:00:46.742Z,58.55
2023-02-14T22:02:48.934Z,58.06
2023-02-14T22:04:51.912Z,58.15
2023-02-14T22:06:56.524Z,58.30
2023-02-14T22:09:00.459Z,58.04
2023-02-14T22:11:08.207Z,58.10
2023-02-14T22:13:10.330Z,58.10
2023-02-14T22:15:12.377Z,58.42
2023-02-14T22:17:14.474Z,57.76
2023-02-14T22:19:16.695Z,57.73
2023-02-14T22:21:24.103Z,58.47
2023-02-14T22:23:28.987Z,57.96
2023-02-14T22:25:31.594Z,57.76
2023-02-14T22:27:38.506Z,57.79
2023-02-14T22:29:40.814Z,57.76
2023-02-14T22:31:44.436Z,58.20
2023-02-14T22:33:47.993Z,58.08
2023-02-14T22:35:54.916Z,57.59
2023-02-14T22:37:57.406Z,57.74
2023-02-14T22:39:59.496Z,57.97
2023-02-14T22:42:06.939Z,57.87
2023-02-14T22:44:09.393Z,57.79
2023-02-14T22:46:17.207Z,58.11
2023-02-14T22:48:20.449Z,57.91
2023-02-14T22:50:22.646Z,58.35
2023-02-14T22:52:24.509Z,58.09
2023-02-14T22:54:26.610Z,58.09
2023-02-14T22:56:41.533Z,58.08
2023-02-14T22:58:43.771Z,57.85
2023-02-14T23:00:47.764Z,58.16
2023-02-14T23:02:50.050Z,58.13
2023-02-14T23:04:52.114Z,57.99
2023-02-14T23:06:54.501Z,57.81
2023-02-14T23:08:57.261Z,58.01
2023-02-14T23:11:10.663Z,58.66
2023-02-14T23:13:31.611Z,58.15
2023-02-14T23:15:52.152Z,58.37
2023-02-14T23:18:13.448Z,58.52
2023-02-14T23:20:34.075Z,58.25
2023-02-14T23:22:38.942Z,57.97
2023-02-14T23:24:41.914Z,57.96
2023-02-14T23:26:44.239Z,57.98
2023-02-14T23:28:46.412Z,58.58
2023-02-14T23:30:48.520Z,58.61
2023-02-14T23:32:50.508Z,59.13
2023-02-14T23:34:52.677Z,58.89
2023-02-14T23:36:55.275Z,58.63
2023-02-14T23:38:57.645Z,58.78
2023-02-14T23:41:27.651Z,59.12
2023-02-14T23:43:31.458Z,59.58
2023-02-14T23:45:36.225Z,59.06
2023-02-14T23:47:38.332Z,59.07
2023-02-14T23:49:42.262Z,58.94
2023-02-14T23:51:46.470Z,58.38
2023-02-14T23:53:48.562Z,58.62
2023-02-14T23:55:50.534Z,58.32
2023-02-14T23:57:52.846Z,58.44
2023-02-14T23:59:55.047Z,58.40
